Corvera de Asturias, Spain
Current Conditions -  °F | °C
As of 11:00 PM on Thursday 27 Nov 2014 (Local Time) from LEAS Reporting Station
Clear Clear  
Wind Chill: 55°   Ceiling: Unl
Heat Index: 55°   Visibility: 6mi
Dew Point: 45°   Wind: 9mph
Humidity: 67%   Direction: 120°ESE
Pressure: 29.03"   Gusts: NA
Location:  43.51°N, 5.87°W
Report Text: LEAS 272200Z 12008KT 100V160 CAVOK 13/07 Q0983 NOSIG
Loading
Personal Weather Stations






























Interactive Weather Map New forecast layout! Learn more

10-Day Weather Forecast

Advertisements
Track Severe Weather on mobile